Time;durP1;ratioP1;P1;durP2;ratioP2;P2;SDS_P1;SDS_P2;PMS_P1;PMS_P2;Temp;Humidity;BMP_temperature;BMP_pressure;BME280_temperature;BME280_humidity;BME280_pressure;Samples;Min_cycle;Max_cycle;Signal;HPM_P1;HPM_P2
2021/03/30 00:01:27;;;;;;;0.00;0.00;;;;;;;;;;5032594;28;20642;-59
2021/03/30 00:03:54;;;;;;;2.73;0.63;;;;;;;;;;5031721;28;20969;-58
2021/03/30 00:06:22;;;;;;;8.50;1.60;;;;;;;;;;5035980;28;20187;-59
2021/03/30 00:08:48;;;;;;;2.00;0.63;;;;;;;;;;5033732;28;21071;-61
2021/03/30 00:11:18;;;;;;;0.10;0.10;;;;;;;;;;5035985;28;20191;-60
2021/03/30 00:13:45;;;;;;;0.40;0.40;;;;;;;;;;5034616;28;20187;-60
2021/03/30 00:16:11;;;;;;;0.00;0.00;;;;;;;;;;5034945;28;20195;-60
2021/03/30 00:18:38;;;;;;;0.40;0.40;;;;;;;;;;5032665;28;20790;-61
2021/03/30 00:21:04;;;;;;;42.17;1.97;;;;;;;;;;5035505;28;20242;-61
2021/03/30 00:23:31;;;;;;;1.43;0.90;;;;;;;;;;5034622;28;21014;-60
2021/03/30 00:25:58;;;;;;;3.07;0.23;;;;;;;;;;5034218;28;20187;-59
2021/03/30 00:28:24;;;;;;;1.03;1.03;;;;;;;;;;5034724;28;20195;-61
2021/03/30 00:30:51;;;;;;;0.10;0.10;;;;;;;;;;5033458;28;20195;-60
2021/03/30 00:33:19;;;;;;;10.50;2.60;;;;;;;;;;5033905;28;20205;-60
2021/03/30 00:35:47;;;;;;;0.00;0.00;;;;;;;;;;5035601;28;20199;-60
2021/03/30 00:38:15;;;;;;;0.10;0.10;;;;;;;;;;5027462;28;20218;-60
2021/03/30 00:40:42;;;;;;;3.17;0.97;;;;;;;;;;5034196;28;20215;-61
2021/03/30 00:43:08;;;;;;;0.10;0.10;;;;;;;;;;5034036;28;20194;-60
2021/03/30 00:45:35;;;;;;;0.10;0.10;;;;;;;;;;5034828;28;20187;-60
2021/03/30 00:48:01;;;;;;;0.00;0.00;;;;;;;;;;5038450;28;20314;-61
2021/03/30 00:50:35;;;;;;;0.10;0.10;;;;;;;;;;5035932;28;20283;-61
2021/03/30 00:53:03;;;;;;;2.00;1.13;;;;;;;;;;5033457;28;20195;-61
2021/03/30 00:55:30;;;;;;;0.20;0.20;;;;;;;;;;5036406;28;20188;-61
2021/03/30 00:57:56;;;;;;;0.10;0.10;;;;;;;;;;5030924;28;20249;-61
2021/03/30 01:00:24;;;;;;;0.10;0.10;;;;;;;;;;5033356;28;20290;-60
2021/03/30 01:02:51;;;;;;;0.50;0.27;;;;;;;;;;5036389;28;20649;-61
2021/03/30 01:05:18;;;;;;;2.80;2.63;;;;;;;;;;5034868;28;20222;-60
2021/03/30 01:08:04;;;;;;;3.40;1.80;;;;;;;;;;5034056;28;20195;-60
2021/03/30 01:10:56;;;;;;;0.63;0.63;;;;;;;;;;5032233;28;20195;-61
2021/03/30 01:13:32;;;;;;;1.73;0.63;;;;;;;;;;5040484;28;20261;-61
2021/03/30 01:16:21;;;;;;;0.00;0.00;;;;;;;;;;5034187;28;20222;-60
2021/03/30 01:19:09;;;;;;;1.83;0.90;;;;;;;;;;5032817;28;20187;-61
2021/03/30 01:21:54;;;;;;;0.30;0.20;;;;;;;;;;5031499;28;20218;-60
2021/03/30 01:24:42;;;;;;;0.30;0.30;;;;;;;;;;5032219;28;20296;-61
2021/03/30 01:27:12;;;;;;;0.00;0.00;;;;;;;;;;5032129;28;20256;-61
2021/03/30 01:29:54;;;;;;;1.20;1.20;;;;;;;;;;5036503;28;20187;-61
2021/03/30 01:32:29;;;;;;;0.50;0.50;;;;;;;;;;5032712;28;20642;-61
2021/03/30 01:34:58;;;;;;;0.30;0.20;;;;;;;;;;5033850;28;20191;-61
2021/03/30 01:37:25;;;;;;;0.00;0.00;;;;;;;;;;5031336;28;20269;-61
2021/03/30 01:39:54;;;;;;;4.70;0.50;;;;;;;;;;5033922;28;20207;-61
2021/03/30 01:42:25;;;;;;;1.37;0.80;;;;;;;;;;5034781;28;20203;-61
2021/03/30 01:44:52;;;;;;;2.43;0.70;;;;;;;;;;5034414;28;20218;-61
2021/03/30 01:47:20;;;;;;;8.30;1.80;;;;;;;;;;5036370;28;20202;-61
2021/03/30 01:49:47;;;;;;;2.80;1.77;;;;;;;;;;5033723;28;20183;-61
2021/03/30 01:52:16;;;;;;;0.83;0.57;;;;;;;;;;5032592;28;20189;-61
2021/03/30 01:54:44;;;;;;;2.03;1.50;;;;;;;;;;5032843;28;20267;-61
2021/03/30 01:57:11;;;;;;;0.00;0.00;;;;;;;;;;5032972;28;20314;-61
2021/03/30 02:02:45;;;;;;;0.00;0.00;;;;;;;;;;4995124;23;20334;-60
2021/03/30 02:05:13;;;;;;;1.83;0.27;;;;;;;;;;4994605;28;20173;-60
2021/03/30 02:07:41;;;;;;;0.67;0.53;;;;;;;;;;4989846;28;20184;-60
2021/03/30 02:10:13;;;;;;;0.83;0.83;;;;;;;;;;4991766;28;20706;-60
2021/03/30 02:12:44;;;;;;;5.10;1.40;;;;;;;;;;4990403;28;20287;-60
2021/03/30 02:15:12;;;;;;;0.00;0.00;;;;;;;;;;4983132;28;20248;-60
2021/03/30 02:17:41;;;;;;;0.00;0.00;;;;;;;;;;4992087;28;20444;-60
2021/03/30 02:20:26;;;;;;;0.00;0.00;;;;;;;;;;4992114;28;20201;-60
2021/03/30 02:22:52;;;;;;;0.03;0.03;;;;;;;;;;4987712;28;20219;-60
2021/03/30 02:25:20;;;;;;;0.10;0.10;;;;;;;;;;4990471;28;20172;-60
2021/03/30 02:27:48;;;;;;;0.57;0.20;;;;;;;;;;4992925;28;20580;-60
2021/03/30 02:30:15;;;;;;;0.93;0.50;;;;;;;;;;4997885;28;20181;-60
2021/03/30 02:32:43;;;;;;;0.30;0.20;;;;;;;;;;4993455;28;20445;-60
2021/03/30 02:35:11;;;;;;;0.87;0.40;;;;;;;;;;4994063;28;20191;-60
2021/03/30 02:37:39;;;;;;;12.73;0.63;;;;;;;;;;4992721;28;20543;-60
2021/03/30 02:40:07;;;;;;;0.00;0.00;;;;;;;;;;4993280;28;20199;-60
2021/03/30 02:42:35;;;;;;;0.30;0.30;;;;;;;;;;5003611;28;20176;-60
2021/03/30 02:45:02;;;;;;;1.20;0.63;;;;;;;;;;4997468;28;20286;-60
2021/03/30 02:47:29;;;;;;;12.73;2.00;;;;;;;;;;4995203;28;20187;-60
2021/03/30 02:49:55;;;;;;;0.00;0.00;;;;;;;;;;4991245;28;20670;-60
2021/03/30 02:52:24;;;;;;;1.20;0.83;;;;;;;;;;4991801;28;20312;-60
2021/03/30 02:54:51;;;;;;;0.00;0.00;;;;;;;;;;4991144;28;20181;-60
2021/03/30 02:57:18;;;;;;;0.30;0.27;;;;;;;;;;4992438;28;20192;-60
2021/03/30 02:59:47;;;;;;;0.00;0.00;;;;;;;;;;4992594;28;20528;-60
2021/03/30 03:02:13;;;;;;;6.80;1.10;;;;;;;;;;4993727;28;20216;-60
2021/03/30 03:04:41;;;;;;;0.43;0.43;;;;;;;;;;4994046;28;20187;-60
2021/03/30 03:07:07;;;;;;;0.20;0.20;;;;;;;;;;4993124;28;20197;-60
2021/03/30 03:09:34;;;;;;;0.50;0.30;;;;;;;;;;4987341;28;20287;-60
2021/03/30 03:12:01;;;;;;;0.00;0.00;;;;;;;;;;4990354;28;20188;-60
2021/03/30 03:14:29;;;;;;;3.80;1.80;;;;;;;;;;4993752;28;20189;-60
2021/03/30 03:16:56;;;;;;;5.63;1.33;;;;;;;;;;4996357;28;20745;-60
2021/03/30 03:19:24;;;;;;;0.10;0.10;;;;;;;;;;4990213;28;20216;-60
2021/03/30 03:21:51;;;;;;;1.07;0.40;;;;;;;;;;4989705;28;20252;-60
2021/03/30 03:24:18;;;;;;;1.10;0.63;;;;;;;;;;4993164;28;20189;-60
2021/03/30 03:26:44;;;;;;;0.47;0.40;;;;;;;;;;4993165;28;21013;-60
2021/03/30 03:29:12;;;;;;;0.00;0.00;;;;;;;;;;4995972;28;20266;-60
2021/03/30 03:31:39;;;;;;;0.10;0.10;;;;;;;;;;4997602;28;20180;-60
2021/03/30 03:34:05;;;;;;;3.40;0.60;;;;;;;;;;4994712;28;20189;-60
2021/03/30 03:36:42;;;;;;;2.10;1.53;;;;;;;;;;4994858;28;20184;-60
2021/03/30 03:39:11;;;;;;;0.10;0.10;;;;;;;;;;4995086;28;20794;-60
2021/03/30 03:41:37;;;;;;;0.50;0.50;;;;;;;;;;4989892;28;20294;-60
2021/03/30 03:44:04;;;;;;;0.13;0.13;;;;;;;;;;4986359;28;20209;-60
2021/03/30 03:46:31;;;;;;;10.40;1.27;;;;;;;;;;4990837;28;20176;-60
2021/03/30 03:48:57;;;;;;;0.60;0.60;;;;;;;;;;4992723;28;20739;-60
2021/03/30 03:51:24;;;;;;;1.67;1.27;;;;;;;;;;4985492;28;20215;-60
2021/03/30 03:53:52;;;;;;;2.07;0.97;;;;;;;;;;4988104;28;20486;-59
2021/03/30 03:56:27;;;;;;;4.00;0.40;;;;;;;;;;4989986;28;20187;-60
2021/03/30 03:58:56;;;;;;;2.63;1.53;;;;;;;;;;4988096;28;20174;-59
2021/03/30 04:01:29;;;;;;;3.70;0.57;;;;;;;;;;4989325;28;20228;-59
2021/03/30 04:04:00;;;;;;;0.10;0.10;;;;;;;;;;4989643;28;20176;-59
2021/03/30 04:06:40;;;;;;;4.40;3.10;;;;;;;;;;4991016;28;20474;-59
2021/03/30 04:09:10;;;;;;;0.53;0.53;;;;;;;;;;4991283;28;20177;-59
2021/03/30 04:11:37;;;;;;;0.60;0.37;;;;;;;;;;4989704;28;20180;-59
2021/03/30 04:14:03;;;;;;;0.10;0.10;;;;;;;;;;4993515;28;20272;-59
2021/03/30 04:16:31;;;;;;;0.83;0.83;;;;;;;;;;4993753;28;20219;-59
2021/03/30 04:18:57;;;;;;;0.20;0.20;;;;;;;;;;4992112;28;20214;-59
2021/03/30 04:21:33;;;;;;;0.10;0.10;;;;;;;;;;4995118;28;20230;-59
2021/03/30 04:24:00;;;;;;;0.33;0.33;;;;;;;;;;4986656;28;20175;-60
2021/03/30 04:26:27;;;;;;;0.00;0.00;;;;;;;;;;4986566;28;20242;-60
2021/03/30 04:28:54;;;;;;;0.23;0.23;;;;;;;;;;4987678;28;20180;-59
2021/03/30 04:31:21;;;;;;;2.37;1.17;;;;;;;;;;4992427;28;20315;-59
2021/03/30 04:33:47;;;;;;;0.00;0.00;;;;;;;;;;4990083;28;20663;-60
2021/03/30 04:36:14;;;;;;;0.10;0.10;;;;;;;;;;4984415;28;20192;-59
2021/03/30 04:38:40;;;;;;;4.10;1.53;;;;;;;;;;4992062;28;20196;-59
2021/03/30 04:41:07;;;;;;;0.00;0.00;;;;;;;;;;4990947;28;20404;-59
2021/03/30 04:43:34;;;;;;;0.00;0.00;;;;;;;;;;4987598;28;20172;-59
2021/03/30 04:46:00;;;;;;;0.10;0.10;;;;;;;;;;4990395;28;20592;-59
2021/03/30 04:48:27;;;;;;;0.60;0.20;;;;;;;;;;4990595;28;20531;-60
2021/03/30 04:50:54;;;;;;;0.40;0.40;;;;;;;;;;4991772;28;20616;-59
2021/03/30 04:53:21;;;;;;;1.50;0.67;;;;;;;;;;4991556;28;20258;-59
2021/03/30 04:55:47;;;;;;;3.10;0.23;;;;;;;;;;4989597;28;20287;-59
2021/03/30 04:58:14;;;;;;;3.37;0.40;;;;;;;;;;4993510;28;20955;-61
2021/03/30 05:00:40;;;;;;;0.10;0.10;;;;;;;;;;4989965;28;20451;-60
2021/03/30 05:03:07;;;;;;;0.00;0.00;;;;;;;;;;4992883;28;20228;-59
2021/03/30 05:05:33;;;;;;;0.00;0.00;;;;;;;;;;4990116;28;20203;-60
2021/03/30 05:08:00;;;;;;;0.10;0.10;;;;;;;;;;4988530;28;20172;-59
2021/03/30 05:10:27;;;;;;;8.10;0.33;;;;;;;;;;4986378;28;20178;-60
2021/03/30 05:12:54;;;;;;;0.20;0.20;;;;;;;;;;4990318;28;20187;-59
2021/03/30 05:15:20;;;;;;;0.50;0.50;;;;;;;;;;4990134;28;20670;-59
2021/03/30 05:17:47;;;;;;;0.80;0.17;;;;;;;;;;4986928;28;20892;-60
2021/03/30 05:20:14;;;;;;;0.27;0.27;;;;;;;;;;4985980;28;20210;-59
2021/03/30 05:22:43;;;;;;;0.10;0.10;;;;;;;;;;4986288;28;20481;-59
2021/03/30 13:20:34;;;;;;;0.00;0.00;;;;;;;;;;5040152;28;20670;-57
2021/03/30 13:23:02;;;;;;;0.53;0.43;;;;;;;;;;5027157;28;20191;-57
2021/03/30 13:25:33;;;;;;;2.60;0.37;;;;;;;;;;5029592;28;20913;-58
2021/03/30 13:28:00;;;;;;;1.33;0.57;;;;;;;;;;5018568;28;20197;-58
2021/03/30 13:30:27;;;;;;;1.70;1.03;;;;;;;;;;5028487;28;20193;-58
2021/03/30 13:32:54;;;;;;;0.00;0.00;;;;;;;;;;5025070;28;20666;-58
2021/03/30 13:35:21;;;;;;;13.00;1.23;;;;;;;;;;5023392;28;20230;-57
2021/03/30 13:37:47;;;;;;;0.20;0.10;;;;;;;;;;5018229;28;20192;-58
2021/03/30 13:40:14;;;;;;;0.00;0.00;;;;;;;;;;5016427;28;20853;-57
2021/03/30 13:42:41;;;;;;;0.00;0.00;;;;;;;;;;5028205;28;20345;-58
2021/03/30 13:45:09;;;;;;;0.10;0.10;;;;;;;;;;5023728;28;20227;-58
2021/03/30 13:47:36;;;;;;;0.13;0.13;;;;;;;;;;5027038;28;20720;-57
2021/03/30 13:50:03;;;;;;;0.33;0.33;;;;;;;;;;5025220;28;20190;-58
2021/03/30 13:52:30;;;;;;;5.20;2.80;;;;;;;;;;5027297;28;20188;-57
2021/03/30 13:54:57;;;;;;;2.90;0.70;;;;;;;;;;5028839;28;20201;-58
2021/03/30 13:57:23;;;;;;;66.53;59.83;;;;;;;;;;5028236;28;20191;-58
2021/03/30 13:59:50;;;;;;;0.73;0.73;;;;;;;;;;5028401;28;20559;-58
2021/03/30 14:02:16;;;;;;;3.83;1.97;;;;;;;;;;5026428;28;20187;-58
2021/03/30 14:04:43;;;;;;;0.00;0.00;;;;;;;;;;5026792;28;20271;-58
2021/03/30 14:07:09;;;;;;;0.10;0.10;;;;;;;;;;5024815;28;20899;-58
2021/03/30 14:09:36;;;;;;;5.93;0.83;;;;;;;;;;5029633;28;21074;-58
2021/03/30 14:12:05;;;;;;;0.70;0.30;;;;;;;;;;5030999;28;20203;-58
2021/03/30 14:14:38;;;;;;;0.00;0.00;;;;;;;;;;5022284;28;20601;-58
2021/03/30 14:17:09;;;;;;;5.87;0.90;;;;;;;;;;5021869;28;20848;-58
2021/03/30 14:22:04;;;;;;;3.50;0.73;;;;;;;;;;5030847;28;20275;-57
2021/03/30 14:24:33;;;;;;;0.00;0.00;;;;;;;;;;5024627;28;20201;-57
2021/03/30 14:27:00;;;;;;;2.20;0.70;;;;;;;;;;5017833;28;20197;-58
2021/03/30 14:29:26;;;;;;;0.00;0.00;;;;;;;;;;5016392;28;20286;-58
2021/03/30 14:31:53;;;;;;;4.13;1.20;;;;;;;;;;5012142;28;20205;-57
2021/03/30 14:34:19;;;;;;;6.00;1.20;;;;;;;;;;5011277;28;20282;-57
2021/03/30 14:36:46;;;;;;;0.63;0.57;;;;;;;;;;5009025;28;20200;-58
2021/03/30 14:39:13;;;;;;;0.77;0.77;;;;;;;;;;5009049;28;20297;-57
2021/03/30 14:41:50;;;;;;;2.73;2.33;;;;;;;;;;5011936;28;20203;-57
2021/03/30 14:44:33;;;;;;;1.30;0.87;;;;;;;;;;5019675;28;20241;-58
2021/03/30 14:52:52;;;;;;;0.57;0.30;;;;;;;;;;5015375;28;20210;-57
2021/03/30 14:58:01;;;;;;;0.77;0.10;;;;;;;;;;5010356;28;20191;-58
2021/03/30 15:05:48;;;;;;;0.10;0.10;;;;;;;;;;5004043;28;20192;-58
2021/03/30 15:08:14;;;;;;;0.07;0.07;;;;;;;;;;5007062;28;20183;-58
2021/03/30 15:10:41;;;;;;;0.00;0.00;;;;;;;;;;5007381;28;20215;-57
2021/03/30 15:13:07;;;;;;;0.97;0.73;;;;;;;;;;5012799;28;20183;-58
2021/03/30 15:15:38;;;;;;;0.00;0.00;;;;;;;;;;5015182;28;20276;-57
2021/03/30 15:18:05;;;;;;;0.10;0.10;;;;;;;;;;5004204;28;20838;-58
2021/03/30 15:20:32;;;;;;;0.50;0.10;;;;;;;;;;5009251;28;20844;-58
2021/03/30 15:22:58;;;;;;;0.00;0.00;;;;;;;;;;5003322;28;20180;-58
2021/03/30 15:25:25;;;;;;;0.57;0.23;;;;;;;;;;5011378;28;20964;-58
2021/03/30 15:27:52;;;;;;;0.93;0.93;;;;;;;;;;5018332;28;20834;-58
2021/03/30 15:30:19;;;;;;;0.00;0.00;;;;;;;;;;5000274;28;20198;-57
2021/03/30 15:32:46;;;;;;;1.93;1.17;;;;;;;;;;5017698;28;20185;-58
2021/03/30 15:35:12;;;;;;;4.33;1.53;;;;;;;;;;5019286;28;20191;-58
2021/03/30 15:37:39;;;;;;;1.70;0.50;;;;;;;;;;5011284;28;20194;-58
2021/03/30 15:40:08;;;;;;;1.77;0.50;;;;;;;;;;4999473;28;20666;-58
2021/03/30 15:42:35;;;;;;;0.00;0.00;;;;;;;;;;5016727;28;20648;-58
2021/03/30 15:47:28;;;;;;;7.10;0.27;;;;;;;;;;5018338;28;20186;-58
2021/03/30 15:49:59;;;;;;;0.17;0.10;;;;;;;;;;5007886;28;20192;-58
2021/03/30 15:52:26;;;;;;;0.60;0.13;;;;;;;;;;5007522;28;20245;-58
2021/03/30 15:55:00;;;;;;;1.23;0.10;;;;;;;;;;5009877;28;20215;-58
2021/03/30 15:57:27;;;;;;;0.00;0.00;;;;;;;;;;5007690;28;20208;-58
2021/03/30 15:59:54;;;;;;;0.10;0.00;;;;;;;;;;5016862;28;20199;-57
2021/03/30 16:02:20;;;;;;;0.10;0.10;;;;;;;;;;5015754;28;20193;-57
2021/03/30 16:04:48;;;;;;;3.40;0.57;;;;;;;;;;5007210;28;20665;-58
2021/03/30 16:07:16;;;;;;;0.87;0.20;;;;;;;;;;5015070;28;20177;-58
2021/03/30 16:09:43;;;;;;;2.13;0.63;;;;;;;;;;5008189;28;20395;-58
2021/03/30 16:12:14;;;;;;;3.00;1.90;;;;;;;;;;5005199;28;20191;-58
2021/03/30 16:14:41;;;;;;;0.83;0.20;;;;;;;;;;5019424;28;20186;-58
2021/03/30 16:17:08;;;;;;;0.30;0.13;;;;;;;;;;5006585;28;20195;-58
2021/03/30 16:19:35;;;;;;;3.00;0.27;;;;;;;;;;5006772;28;20321;-58
2021/03/30 16:22:02;;;;;;;1.50;1.27;;;;;;;;;;5011180;28;20209;-58
2021/03/30 16:24:28;;;;;;;0.00;0.00;;;;;;;;;;5004210;28;20185;-58
2021/03/30 16:26:55;;;;;;;0.60;0.30;;;;;;;;;;5005350;28;20500;-58
2021/03/30 16:29:21;;;;;;;0.87;0.20;;;;;;;;;;5014139;28;20350;-58
2021/03/30 16:31:48;;;;;;;0.60;0.27;;;;;;;;;;5002612;28;20198;-58
2021/03/30 16:34:14;;;;;;;8.90;0.73;;;;;;;;;;5013359;28;20281;-57
2021/03/30 16:36:41;;;;;;;10.87;1.10;;;;;;;;;;5019933;28;20182;-58
2021/03/30 16:39:07;;;;;;;0.13;0.13;;;;;;;;;;5009007;28;20233;-58
2021/03/30 16:41:35;;;;;;;5.73;0.63;;;;;;;;;;5005348;28;20736;-58
2021/03/30 16:44:02;;;;;;;0.17;0.17;;;;;;;;;;5009395;28;20830;-58
2021/03/30 16:46:32;;;;;;;5.97;0.67;;;;;;;;;;5001406;28;20184;-58
2021/03/30 16:48:59;;;;;;;9.60;6.13;;;;;;;;;;5001681;28;20227;-58
2021/03/30 16:51:27;;;;;;;10.03;2.67;;;;;;;;;;4998594;28;20194;-58
2021/03/30 16:53:54;;;;;;;1.43;0.83;;;;;;;;;;5009977;28;20472;-58
2021/03/30 16:56:21;;;;;;;0.27;0.27;;;;;;;;;;5010202;28;20583;-58
2021/03/30 16:58:49;;;;;;;0.03;0.03;;;;;;;;;;5012154;28;20262;-58
2021/03/30 17:01:16;;;;;;;5.20;1.83;;;;;;;;;;5010346;28;20244;-58
2021/03/30 17:03:43;;;;;;;0.00;0.00;;;;;;;;;;5013318;28;20551;-58
2021/03/30 17:06:10;;;;;;;0.00;0.00;;;;;;;;;;5004859;28;20673;-57
2021/03/30 17:08:36;;;;;;;0.20;0.13;;;;;;;;;;5006775;28;20194;-57
2021/03/30 17:11:03;;;;;;;0.00;0.00;;;;;;;;;;5002351;28;20181;-57
2021/03/30 17:13:29;;;;;;;0.57;0.33;;;;;;;;;;5013038;28;20195;-57
2021/03/30 17:15:56;;;;;;;4.70;2.30;;;;;;;;;;5016087;28;20191;-58
2021/03/30 17:18:23;;;;;;;1.10;0.30;;;;;;;;;;5005599;28;20395;-57
2021/03/30 17:20:53;;;;;;;2.77;0.83;;;;;;;;;;5015377;28;20945;-57
2021/03/30 17:23:20;;;;;;;1.33;0.40;;;;;;;;;;5001870;28;20902;-57
2021/03/30 17:25:46;;;;;;;5.07;0.83;;;;;;;;;;5004173;28;20189;-57
2021/03/30 17:28:13;;;;;;;0.10;0.03;;;;;;;;;;5010236;28;20452;-57
2021/03/30 17:30:39;;;;;;;0.40;0.40;;;;;;;;;;4999165;28;20293;-57
2021/03/30 17:33:07;;;;;;;0.40;0.10;;;;;;;;;;5006873;28;20200;-58
2021/03/30 17:35:34;;;;;;;0.23;0.10;;;;;;;;;;5010551;28;20206;-58
2021/03/30 17:38:01;;;;;;;0.73;0.47;;;;;;;;;;5003559;28;20839;-57
2021/03/30 17:40:27;;;;;;;0.00;0.00;;;;;;;;;;5009036;28;20207;-57
2021/03/30 17:42:54;;;;;;;8.23;3.80;;;;;;;;;;4998104;28;20208;-57
2021/03/30 17:45:21;;;;;;;4.70;1.13;;;;;;;;;;5014117;28;20666;-58
2021/03/30 17:47:47;;;;;;;12.43;11.37;;;;;;;;;;5013387;28;20190;-57
2021/03/30 17:50:15;;;;;;;0.00;0.00;;;;;;;;;;5005911;28;20219;-57
2021/03/30 17:52:42;;;;;;;0.17;0.17;;;;;;;;;;5008064;28;20211;-58
2021/03/30 17:55:09;;;;;;;0.00;0.00;;;;;;;;;;5008746;28;20845;-57
2021/03/30 17:57:36;;;;;;;0.80;0.27;;;;;;;;;;5000970;28;20197;-57
2021/03/30 18:00:04;;;;;;;0.30;0.30;;;;;;;;;;5005054;28;20243;-58
2021/03/30 18:02:31;;;;;;;0.87;0.43;;;;;;;;;;5011749;28;20189;-57
2021/03/30 18:04:57;;;;;;;2.83;2.67;;;;;;;;;;5006838;28;20857;-57
2021/03/30 18:07:25;;;;;;;2.20;1.93;;;;;;;;;;5009096;28;20204;-58
2021/03/30 18:09:51;;;;;;;0.10;0.10;;;;;;;;;;5005187;28;20192;-57
2021/03/30 18:12:18;;;;;;;0.73;0.43;;;;;;;;;;5013657;28;20283;-57
2021/03/30 18:14:45;;;;;;;2.47;1.60;;;;;;;;;;5014123;28;20196;-57
2021/03/30 18:17:11;;;;;;;0.73;0.20;;;;;;;;;;5007860;28;20216;-57
2021/03/30 18:19:38;;;;;;;0.60;0.17;;;;;;;;;;5003699;28;20325;-58
2021/03/30 18:22:05;;;;;;;2.87;0.73;;;;;;;;;;5007626;28;20291;-57
2021/03/30 18:24:32;;;;;;;1.93;1.83;;;;;;;;;;5011062;28;20271;-57
2021/03/30 18:26:58;;;;;;;1.03;0.93;;;;;;;;;;5010851;28;20290;-58
2021/03/30 18:29:25;;;;;;;1.90;0.63;;;;;;;;;;5018783;28;20188;-57
2021/03/30 18:31:51;;;;;;;0.27;0.27;;;;;;;;;;5015731;28;20287;-57
2021/03/30 18:34:18;;;;;;;0.00;0.00;;;;;;;;;;5013508;28;20191;-57
2021/03/30 18:36:44;;;;;;;0.00;0.00;;;;;;;;;;5003824;28;21053;-57
2021/03/30 18:39:11;;;;;;;3.70;1.37;;;;;;;;;;5013637;28;20818;-58
2021/03/30 18:41:38;;;;;;;0.00;0.00;;;;;;;;;;5012546;28;20191;-58
2021/03/30 18:44:04;;;;;;;0.10;0.10;;;;;;;;;;5015472;28;20625;-58
2021/03/30 18:46:31;;;;;;;2.20;0.53;;;;;;;;;;5011583;28;20198;-57
2021/03/30 18:48:58;;;;;;;1.33;0.43;;;;;;;;;;5008540;28;20191;-57
2021/03/30 18:51:25;;;;;;;1.57;0.57;;;;;;;;;;5003756;28;20295;-57
2021/03/30 18:53:52;;;;;;;4.10;0.90;;;;;;;;;;5002941;28;20720;-57
2021/03/30 18:56:19;;;;;;;0.43;0.30;;;;;;;;;;5007691;28;20199;-58
2021/03/30 18:58:53;;;;;;;0.83;0.20;;;;;;;;;;5007659;28;20666;-58
2021/03/30 19:01:20;;;;;;;0.00;0.00;;;;;;;;;;5006575;28;20203;-58
2021/03/30 19:03:47;;;;;;;0.10;0.10;;;;;;;;;;5011074;28;20195;-58
2021/03/30 19:06:13;;;;;;;0.90;0.40;;;;;;;;;;5008246;28;20230;-57
2021/03/30 19:08:40;;;;;;;1.13;1.13;;;;;;;;;;5007201;28;20196;-57
2021/03/30 19:11:07;;;;;;;1.23;0.40;;;;;;;;;;5016199;28;20218;-58
2021/03/30 19:13:34;;;;;;;1.47;0.77;;;;;;;;;;5012987;28;20196;-58
2021/03/30 19:16:03;;;;;;;0.00;0.00;;;;;;;;;;5012128;28;20192;-58
2021/03/30 19:18:29;;;;;;;0.27;0.10;;;;;;;;;;5005006;28;20358;-57
2021/03/30 19:20:56;;;;;;;0.60;0.20;;;;;;;;;;5016240;28;20187;-58
2021/03/30 19:23:23;;;;;;;3.43;0.30;;;;;;;;;;5014328;28;20201;-57
2021/03/30 19:25:49;;;;;;;0.00;0.00;;;;;;;;;;5014818;28;20270;-57
2021/03/30 19:28:18;;;;;;;0.10;0.10;;;;;;;;;;5007098;28;20410;-57
2021/03/30 19:30:52;;;;;;;0.20;0.20;;;;;;;;;;5003888;28;20728;-58
2021/03/30 19:33:22;;;;;;;0.50;0.47;;;;;;;;;;5001380;28;20218;-57
2021/03/30 19:35:53;;;;;;;0.60;0.60;;;;;;;;;;5000372;28;20232;-57
2021/03/30 19:38:19;;;;;;;2.93;2.73;;;;;;;;;;4999433;28;20185;-57
2021/03/30 19:40:46;;;;;;;2.47;2.37;;;;;;;;;;5015821;28;20805;-58
2021/03/30 19:43:13;;;;;;;0.40;0.40;;;;;;;;;;5001051;28;20195;-57
2021/03/30 19:45:40;;;;;;;0.13;0.00;;;;;;;;;;5014285;28;20190;-57
2021/03/30 19:48:07;;;;;;;2.97;1.53;;;;;;;;;;5004785;28;20243;-57
2021/03/30 19:50:34;;;;;;;0.10;0.10;;;;;;;;;;5008287;28;20212;-58
2021/03/30 19:53:02;;;;;;;0.07;0.00;;;;;;;;;;5011683;28;20186;-57
2021/03/30 19:55:31;;;;;;;6.90;4.50;;;;;;;;;;5012909;28;20228;-57
2021/03/30 19:58:01;;;;;;;0.10;0.00;;;;;;;;;;5011422;28;20651;-57
2021/03/30 20:00:28;;;;;;;0.13;0.13;;;;;;;;;;5005595;28;20209;-57
2021/03/30 20:02:55;;;;;;;3.23;0.97;;;;;;;;;;5013177;28;20188;-57
2021/03/30 20:05:22;;;;;;;0.10;0.10;;;;;;;;;;5013497;28;20231;-57
2021/03/30 20:07:50;;;;;;;0.00;0.00;;;;;;;;;;5013803;28;20194;-57
2021/03/30 20:10:21;;;;;;;0.00;0.00;;;;;;;;;;5011416;28;20198;-57
2021/03/30 20:12:51;;;;;;;2.00;0.30;;;;;;;;;;5011101;28;20204;-57
2021/03/30 20:15:18;;;;;;;1.23;0.87;;;;;;;;;;5010505;28;20187;-57
2021/03/30 20:17:44;;;;;;;2.13;1.20;;;;;;;;;;5011788;28;20177;-57
2021/03/30 20:20:11;;;;;;;0.00;0.00;;;;;;;;;;5014768;28;20239;-57
2021/03/30 20:22:38;;;;;;;0.97;0.20;;;;;;;;;;5008428;28;20664;-57
2021/03/30 20:25:06;;;;;;;0.10;0.00;;;;;;;;;;5010621;28;20190;-57
2021/03/30 20:27:34;;;;;;;1.50;0.17;;;;;;;;;;5008352;28;20726;-57
2021/03/30 20:30:01;;;;;;;0.10;0.10;;;;;;;;;;5008919;28;20199;-57
2021/03/30 20:32:27;;;;;;;0.70;0.37;;;;;;;;;;5008894;28;20195;-57
2021/03/30 20:34:54;;;;;;;1.00;0.50;;;;;;;;;;5011511;28;20231;-57
2021/03/30 20:37:20;;;;;;;0.63;0.00;;;;;;;;;;5016253;28;20260;-57
2021/03/30 20:39:47;;;;;;;0.00;0.00;;;;;;;;;;5014477;28;20328;-57
2021/03/30 20:42:15;;;;;;;0.00;0.00;;;;;;;;;;5013200;28;20239;-58
2021/03/30 20:44:41;;;;;;;0.40;0.40;;;;;;;;;;5009037;28;20192;-57
2021/03/30 20:47:08;;;;;;;0.00;0.00;;;;;;;;;;5004764;28;20198;-57
2021/03/30 20:49:34;;;;;;;4.03;0.10;;;;;;;;;;4997359;28;20228;-57
2021/03/30 20:52:01;;;;;;;0.00;0.00;;;;;;;;;;5004341;28;20194;-57
2021/03/30 20:54:28;;;;;;;1.70;0.50;;;;;;;;;;5003729;28;20196;-57
2021/03/30 20:56:55;;;;;;;0.00;0.00;;;;;;;;;;4998324;28;20187;-57
2021/03/30 20:59:22;;;;;;;0.87;0.10;;;;;;;;;;5006721;28;20200;-57
2021/03/30 21:01:49;;;;;;;0.03;0.00;;;;;;;;;;5009650;28;20270;-57
2021/03/30 21:04:15;;;;;;;0.00;0.00;;;;;;;;;;5004664;28;20321;-56
2021/03/30 21:06:42;;;;;;;0.00;0.00;;;;;;;;;;5002980;28;20193;-56
2021/03/30 21:09:09;;;;;;;2.73;0.37;;;;;;;;;;5005485;28;20203;-56
2021/03/30 21:11:35;;;;;;;3.07;0.90;;;;;;;;;;5002456;28;20242;-56
2021/03/30 21:14:02;;;;;;;10.83;1.60;;;;;;;;;;5004842;28;20255;-56
2021/03/30 21:16:28;;;;;;;0.00;0.00;;;;;;;;;;5001599;28;20193;-57
2021/03/30 21:18:55;;;;;;;0.00;0.00;;;;;;;;;;5000755;28;20671;-57
2021/03/30 21:21:21;;;;;;;1.40;0.40;;;;;;;;;;5001515;28;20254;-57
2021/03/30 21:23:48;;;;;;;11.67;0.93;;;;;;;;;;5003531;28;20810;-57
2021/03/30 21:26:15;;;;;;;0.00;0.00;;;;;;;;;;5008818;28;20192;-57
2021/03/30 21:28:41;;;;;;;0.10;0.10;;;;;;;;;;4997850;28;20714;-57
2021/03/30 21:31:08;;;;;;;0.00;0.00;;;;;;;;;;5004641;28;20700;-57
2021/03/30 21:33:34;;;;;;;0.87;0.77;;;;;;;;;;5005689;28;20180;-57
2021/03/30 21:36:01;;;;;;;0.47;0.43;;;;;;;;;;5006768;28;20276;-58
2021/03/30 21:38:27;;;;;;;0.10;0.10;;;;;;;;;;5005588;28;20292;-57
2021/03/30 21:40:54;;;;;;;0.00;0.00;;;;;;;;;;5007284;28;20259;-57
2021/03/30 21:43:20;;;;;;;5.63;0.83;;;;;;;;;;5013630;28;20831;-57
2021/03/30 21:45:47;;;;;;;2.20;1.93;;;;;;;;;;5016513;28;20192;-57
2021/03/30 21:48:14;;;;;;;2.90;1.00;;;;;;;;;;5015184;28;20817;-57
2021/03/30 21:50:40;;;;;;;6.43;1.50;;;;;;;;;;5018914;28;20295;-57
2021/03/30 21:53:07;;;;;;;5.80;0.90;;;;;;;;;;5015205;28;20196;-58
2021/03/30 21:55:34;;;;;;;0.20;0.20;;;;;;;;;;5008137;28;20266;-58
2021/03/30 21:58:00;;;;;;;0.73;0.63;;;;;;;;;;5011183;28;20189;-58
2021/03/30 22:00:29;;;;;;;4.27;0.87;;;;;;;;;;5012204;28;20211;-58
2021/03/30 22:02:56;;;;;;;0.40;0.40;;;;;;;;;;5016129;28;20271;-58
2021/03/30 22:05:23;;;;;;;3.30;1.07;;;;;;;;;;5013710;28;20197;-59
2021/03/30 22:07:51;;;;;;;0.93;0.93;;;;;;;;;;5013591;28;20669;-59
2021/03/30 22:10:33;;;;;;;0.63;0.50;;;;;;;;;;4974727;28;20449;-59
2021/03/30 22:13:06;;;;;;;3.03;1.33;;;;;;;;;;4965316;28;20215;-59
2021/03/30 22:15:33;;;;;;;2.37;0.57;;;;;;;;;;5030626;28;20196;-59
2021/03/30 22:18:00;;;;;;;0.70;0.43;;;;;;;;;;5019172;28;20196;-59
2021/03/30 22:20:29;;;;;;;6.90;1.60;;;;;;;;;;5010526;28;20282;-59
2021/03/30 22:23:01;;;;;;;1.27;0.50;;;;;;;;;;5013447;28;20193;-59
2021/03/30 22:25:27;;;;;;;0.93;0.20;;;;;;;;;;5010823;28;20816;-59
2021/03/30 22:27:54;;;;;;;4.20;0.53;;;;;;;;;;5004355;28;20595;-59
2021/03/30 22:30:28;;;;;;;1.30;0.20;;;;;;;;;;5009012;28;20220;-59
2021/03/30 22:32:56;;;;;;;0.37;0.37;;;;;;;;;;5013305;28;20245;-59
2021/03/30 22:35:22;;;;;;;5.43;0.87;;;;;;;;;;5014994;28;20184;-59
2021/03/30 22:37:49;;;;;;;7.73;1.77;;;;;;;;;;5013759;28;20642;-59
2021/03/30 22:40:17;;;;;;;1.00;0.97;;;;;;;;;;5012399;28;20255;-59
2021/03/30 22:42:44;;;;;;;2.73;0.50;;;;;;;;;;5008582;28;20271;-59
2021/03/30 22:45:11;;;;;;;0.50;0.50;;;;;;;;;;5015587;28;20192;-59
2021/03/30 22:47:38;;;;;;;5.20;1.47;;;;;;;;;;5015135;28;20214;-59
2021/03/30 22:50:06;;;;;;;0.73;0.63;;;;;;;;;;5011303;28;20196;-59
2021/03/30 22:52:33;;;;;;;0.47;0.27;;;;;;;;;;5004182;28;20192;-58
2021/03/30 22:54:59;;;;;;;3.30;0.53;;;;;;;;;;5006553;28;20189;-58
2021/03/30 22:57:26;;;;;;;1.63;1.00;;;;;;;;;;5011704;28;20220;-59
2021/03/30 22:59:53;;;;;;;1.63;1.00;;;;;;;;;;5001122;28;20208;-58
2021/03/30 23:02:21;;;;;;;0.50;0.50;;;;;;;;;;5011003;28;20189;-58
2021/03/30 23:04:48;;;;;;;0.53;0.53;;;;;;;;;;5014247;28;20188;-58